sensor_id;sensor_type;location;lat;lon;timestamp;P1;durP1;ratioP1;P2;durP2;ratioP2
18659;SDS011;9459;50.254;19.014;2024-01-06T00:01:25;61.63;;;30.52;;
18659;SDS011;9459;50.254;19.014;2024-01-06T00:03:53;63.80;;;30.75;;
18659;SDS011;9459;50.254;19.014;2024-01-06T00:06:23;58.70;;;29.38;;
18659;SDS011;9459;50.254;19.014;2024-01-06T00:08:51;58.42;;;30.27;;
18659;SDS011;9459;50.254;19.014;2024-01-06T00:11:23;61.90;;;30.27;;
18659;SDS011;9459;50.254;19.014;2024-01-06T00:13:52;52.28;;;28.52;;
18659;SDS011;9459;50.254;19.014;2024-01-06T00:16:20;59.58;;;28.92;;
18659;SDS011;9459;50.254;19.014;2024-01-06T00:18:51;52.03;;;27.73;;
18659;SDS011;9459;50.254;19.014;2024-01-06T00:21:20;51.22;;;27.25;;
18659;SDS011;9459;50.254;19.014;2024-01-06T00:23:48;54.15;;;28.15;;
18659;SDS011;9459;50.254;19.014;2024-01-06T00:26:17;55.78;;;28.67;;
18659;SDS011;9459;50.254;19.014;2024-01-06T00:28:47;56.80;;;28.15;;
18659;SDS011;9459;50.254;19.014;2024-01-06T00:31:16;51.55;;;26.48;;
18659;SDS011;9459;50.254;19.014;2024-01-06T00:33:45;53.00;;;27.67;;
18659;SDS011;9459;50.254;19.014;2024-01-06T00:36:13;53.13;;;27.73;;
18659;SDS011;9459;50.254;19.014;2024-01-06T00:38:42;51.67;;;26.75;;
18659;SDS011;9459;50.254;19.014;2024-01-06T00:41:10;52.08;;;26.70;;
18659;SDS011;9459;50.254;19.014;2024-01-06T00:43:39;60.08;;;29.50;;
18659;SDS011;9459;50.254;19.014;2024-01-06T00:46:08;65.53;;;31.33;;
18659;SDS011;9459;50.254;19.014;2024-01-06T00:48:37;64.28;;;31.08;;
18659;SDS011;9459;50.254;19.014;2024-01-06T00:51:06;59.03;;;29.45;;
18659;SDS011;9459;50.254;19.014;2024-01-06T00:53:34;56.08;;;27.17;;
18659;SDS011;9459;50.254;19.014;2024-01-06T00:56:03;56.17;;;28.25;;
18659;SDS011;9459;50.254;19.014;2024-01-06T00:58:32;56.22;;;27.77;;
18659;SDS011;9459;50.254;19.014;2024-01-06T01:01:00;62.63;;;29.27;;
18659;SDS011;9459;50.254;19.014;2024-01-06T01:03:31;59.15;;;28.80;;
18659;SDS011;9459;50.254;19.014;2024-01-06T01:06:01;60.33;;;29.10;;
18659;SDS011;9459;50.254;19.014;2024-01-06T01:08:29;51.47;;;26.50;;
18659;SDS011;9459;50.254;19.014;2024-01-06T01:10:59;59.13;;;30.60;;
18659;SDS011;9459;50.254;19.014;2024-01-06T01:13:27;64.13;;;31.50;;
18659;SDS011;9459;50.254;19.014;2024-01-06T01:15:56;59.22;;;29.15;;
18659;SDS011;9459;50.254;19.014;2024-01-06T01:18:24;62.35;;;30.05;;
18659;SDS011;9459;50.254;19.014;2024-01-06T01:20:55;70.38;;;32.78;;
18659;SDS011;9459;50.254;19.014;2024-01-06T01:23:23;73.68;;;34.08;;
18659;SDS011;9459;50.254;19.014;2024-01-06T01:25:53;60.50;;;31.63;;
18659;SDS011;9459;50.254;19.014;2024-01-06T01:28:26;67.45;;;31.92;;
18659;SDS011;9459;50.254;19.014;2024-01-06T01:30:55;66.40;;;30.92;;
18659;SDS011;9459;50.254;19.014;2024-01-06T01:33:24;62.20;;;30.25;;
18659;SDS011;9459;50.254;19.014;2024-01-06T01:35:55;57.25;;;29.58;;
18659;SDS011;9459;50.254;19.014;2024-01-06T01:38:25;63.22;;;29.95;;
18659;SDS011;9459;50.254;19.014;2024-01-06T01:40:54;59.50;;;29.65;;
18659;SDS011;9459;50.254;19.014;2024-01-06T01:43:22;66.78;;;31.83;;
18659;SDS011;9459;50.254;19.014;2024-01-06T01:45:52;60.35;;;29.92;;
18659;SDS011;9459;50.254;19.014;2024-01-06T01:48:22;61.58;;;30.05;;
18659;SDS011;9459;50.254;19.014;2024-01-06T01:50:51;58.85;;;27.83;;
18659;SDS011;9459;50.254;19.014;2024-01-06T01:53:22;56.75;;;29.35;;
18659;SDS011;9459;50.254;19.014;2024-01-06T01:55:53;59.78;;;29.35;;
18659;SDS011;9459;50.254;19.014;2024-01-06T01:58:22;57.45;;;28.80;;
18659;SDS011;9459;50.254;19.014;2024-01-06T02:00:50;59.75;;;28.67;;
18659;SDS011;9459;50.254;19.014;2024-01-06T02:03:19;56.75;;;28.13;;
18659;SDS011;9459;50.254;19.014;2024-01-06T02:05:48;58.40;;;29.63;;
18659;SDS011;9459;50.254;19.014;2024-01-06T02:08:17;57.25;;;27.85;;
18659;SDS011;9459;50.254;19.014;2024-01-06T02:10:47;52.05;;;27.25;;
18659;SDS011;9459;50.254;19.014;2024-01-06T02:13:16;53.67;;;28.67;;
18659;SDS011;9459;50.254;19.014;2024-01-06T02:15:44;57.17;;;29.25;;
18659;SDS011;9459;50.254;19.014;2024-01-06T02:18:13;51.10;;;27.23;;
18659;SDS011;9459;50.254;19.014;2024-01-06T02:20:43;55.03;;;27.38;;
18659;SDS011;9459;50.254;19.014;2024-01-06T02:23:13;54.78;;;27.83;;
18659;SDS011;9459;50.254;19.014;2024-01-06T02:25:41;54.95;;;28.70;;
18659;SDS011;9459;50.254;19.014;2024-01-06T02:28:10;53.20;;;28.38;;
18659;SDS011;9459;50.254;19.014;2024-01-06T02:30:39;48.58;;;26.63;;
18659;SDS011;9459;50.254;19.014;2024-01-06T02:33:08;54.47;;;28.98;;
18659;SDS011;9459;50.254;19.014;2024-01-06T02:35:37;51.55;;;27.88;;
18659;SDS011;9459;50.254;19.014;2024-01-06T02:38:07;55.80;;;27.73;;
18659;SDS011;9459;50.254;19.014;2024-01-06T02:40:38;55.70;;;29.33;;
18659;SDS011;9459;50.254;19.014;2024-01-06T02:43:06;50.88;;;28.30;;
18659;SDS011;9459;50.254;19.014;2024-01-06T02:45:35;55.63;;;28.50;;
18659;SDS011;9459;50.254;19.014;2024-01-06T02:48:05;57.17;;;29.23;;
18659;SDS011;9459;50.254;19.014;2024-01-06T02:50:34;56.22;;;28.45;;
18659;SDS011;9459;50.254;19.014;2024-01-06T02:53:03;55.00;;;29.08;;
18659;SDS011;9459;50.254;19.014;2024-01-06T02:55:31;56.10;;;29.25;;
18659;SDS011;9459;50.254;19.014;2024-01-06T02:58:01;91.70;;;45.47;;
18659;SDS011;9459;50.254;19.014;2024-01-06T03:00:30;60.75;;;32.03;;
18659;SDS011;9459;50.254;19.014;2024-01-06T03:02:58;59.50;;;30.58;;
18659;SDS011;9459;50.254;19.014;2024-01-06T03:05:27;70.38;;;34.38;;
18659;SDS011;9459;50.254;19.014;2024-01-06T03:07:56;59.08;;;31.35;;
18659;SDS011;9459;50.254;19.014;2024-01-06T03:10:24;66.28;;;34.05;;
18659;SDS011;9459;50.254;19.014;2024-01-06T03:12:53;60.10;;;31.80;;
18659;SDS011;9459;50.254;19.014;2024-01-06T03:15:23;59.97;;;30.90;;
18659;SDS011;9459;50.254;19.014;2024-01-06T03:17:52;67.47;;;34.92;;
18659;SDS011;9459;50.254;19.014;2024-01-06T03:20:21;59.70;;;31.77;;
18659;SDS011;9459;50.254;19.014;2024-01-06T03:22:49;57.45;;;30.83;;
18659;SDS011;9459;50.254;19.014;2024-01-06T03:25:17;58.10;;;32.13;;
18659;SDS011;9459;50.254;19.014;2024-01-06T03:27:46;57.13;;;31.35;;
18659;SDS011;9459;50.254;19.014;2024-01-06T03:30:16;60.92;;;32.35;;
18659;SDS011;9459;50.254;19.014;2024-01-06T03:32:45;54.17;;;30.25;;
18659;SDS011;9459;50.254;19.014;2024-01-06T03:35:14;59.60;;;29.98;;
18659;SDS011;9459;50.254;19.014;2024-01-06T03:37:43;56.47;;;31.95;;
18659;SDS011;9459;50.254;19.014;2024-01-06T03:40:12;57.72;;;30.13;;
18659;SDS011;9459;50.254;19.014;2024-01-06T03:42:43;57.45;;;30.77;;
18659;SDS011;9459;50.254;19.014;2024-01-06T03:45:12;56.35;;;30.08;;
18659;SDS011;9459;50.254;19.014;2024-01-06T03:47:40;53.10;;;29.05;;
18659;SDS011;9459;50.254;19.014;2024-01-06T03:50:10;56.35;;;30.50;;
18659;SDS011;9459;50.254;19.014;2024-01-06T03:52:39;56.03;;;29.70;;
18659;SDS011;9459;50.254;19.014;2024-01-06T03:55:10;60.13;;;31.80;;
18659;SDS011;9459;50.254;19.014;2024-01-06T03:57:39;59.13;;;30.98;;
18659;SDS011;9459;50.254;19.014;2024-01-06T04:00:08;60.42;;;30.85;;
18659;SDS011;9459;50.254;19.014;2024-01-06T04:02:38;56.08;;;28.70;;
18659;SDS011;9459;50.254;19.014;2024-01-06T04:05:07;55.75;;;30.75;;
18659;SDS011;9459;50.254;19.014;2024-01-06T04:07:37;49.78;;;26.92;;
18659;SDS011;9459;50.254;19.014;2024-01-06T04:10:06;51.70;;;27.90;;
18659;SDS011;9459;50.254;19.014;2024-01-06T04:12:35;57.70;;;30.10;;
18659;SDS011;9459;50.254;19.014;2024-01-06T04:15:04;54.83;;;30.45;;
18659;SDS011;9459;50.254;19.014;2024-01-06T04:17:33;57.05;;;29.40;;
18659;SDS011;9459;50.254;19.014;2024-01-06T04:20:01;57.17;;;30.50;;
18659;SDS011;9459;50.254;19.014;2024-01-06T04:22:30;58.60;;;30.45;;
18659;SDS011;9459;50.254;19.014;2024-01-06T04:25:00;55.45;;;30.48;;
18659;SDS011;9459;50.254;19.014;2024-01-06T04:27:28;58.55;;;30.63;;
18659;SDS011;9459;50.254;19.014;2024-01-06T04:29:58;57.10;;;30.52;;
18659;SDS011;9459;50.254;19.014;2024-01-06T04:32:26;57.85;;;31.80;;
18659;SDS011;9459;50.254;19.014;2024-01-06T04:34:55;54.20;;;30.80;;
18659;SDS011;9459;50.254;19.014;2024-01-06T04:37:23;57.25;;;30.90;;
18659;SDS011;9459;50.254;19.014;2024-01-06T04:39:52;55.30;;;31.65;;
18659;SDS011;9459;50.254;19.014;2024-01-06T04:42:22;56.78;;;30.92;;
18659;SDS011;9459;50.254;19.014;2024-01-06T04:44:51;63.08;;;32.17;;
18659;SDS011;9459;50.254;19.014;2024-01-06T04:47:19;115.28;;;45.65;;
18659;SDS011;9459;50.254;19.014;2024-01-06T04:49:48;99.95;;;42.00;;
18659;SDS011;9459;50.254;19.014;2024-01-06T04:52:16;74.03;;;35.17;;
18659;SDS011;9459;50.254;19.014;2024-01-06T04:54:45;81.18;;;36.78;;
18659;SDS011;9459;50.254;19.014;2024-01-06T04:57:14;71.55;;;35.45;;
18659;SDS011;9459;50.254;19.014;2024-01-06T04:59:44;55.55;;;30.13;;
18659;SDS011;9459;50.254;19.014;2024-01-06T05:02:12;61.42;;;30.52;;
18659;SDS011;9459;50.254;19.014;2024-01-06T05:04:43;80.87;;;37.37;;
18659;SDS011;9459;50.254;19.014;2024-01-06T05:07:11;79.32;;;37.22;;
18659;SDS011;9459;50.254;19.014;2024-01-06T05:09:40;85.65;;;36.90;;
18659;SDS011;9459;50.254;19.014;2024-01-06T05:12:08;79.72;;;36.70;;
18659;SDS011;9459;50.254;19.014;2024-01-06T05:14:37;81.68;;;36.55;;
18659;SDS011;9459;50.254;19.014;2024-01-06T05:17:07;69.63;;;32.70;;
18659;SDS011;9459;50.254;19.014;2024-01-06T05:19:36;56.65;;;30.77;;
18659;SDS011;9459;50.254;19.014;2024-01-06T05:22:04;55.83;;;30.85;;
18659;SDS011;9459;50.254;19.014;2024-01-06T05:24:33;66.68;;;33.85;;
18659;SDS011;9459;50.254;19.014;2024-01-06T05:27:01;71.40;;;34.30;;
18659;SDS011;9459;50.254;19.014;2024-01-06T05:29:30;65.57;;;33.63;;
18659;SDS011;9459;50.254;19.014;2024-01-06T05:31:58;61.15;;;32.33;;
18659;SDS011;9459;50.254;19.014;2024-01-06T05:34:28;62.47;;;33.58;;
18659;SDS011;9459;50.254;19.014;2024-01-06T05:36:57;61.42;;;33.03;;
18659;SDS011;9459;50.254;19.014;2024-01-06T05:39:25;65.20;;;33.60;;
18659;SDS011;9459;50.254;19.014;2024-01-06T05:41:53;64.32;;;32.30;;
18659;SDS011;9459;50.254;19.014;2024-01-06T05:44:22;77.90;;;36.03;;
18659;SDS011;9459;50.254;19.014;2024-01-06T05:46:50;78.05;;;36.63;;
18659;SDS011;9459;50.254;19.014;2024-01-06T05:49:19;83.45;;;39.45;;
18659;SDS011;9459;50.254;19.014;2024-01-06T05:51:50;73.68;;;37.08;;
18659;SDS011;9459;50.254;19.014;2024-01-06T05:54:19;71.93;;;36.45;;
18659;SDS011;9459;50.254;19.014;2024-01-06T05:56:47;81.47;;;38.58;;
18659;SDS011;9459;50.254;19.014;2024-01-06T05:59:16;69.90;;;34.13;;
18659;SDS011;9459;50.254;19.014;2024-01-06T06:01:44;67.22;;;35.22;;
18659;SDS011;9459;50.254;19.014;2024-01-06T06:04:13;66.22;;;36.05;;
18659;SDS011;9459;50.254;19.014;2024-01-06T06:06:41;71.80;;;37.38;;
18659;SDS011;9459;50.254;19.014;2024-01-06T06:09:11;64.15;;;33.80;;
18659;SDS011;9459;50.254;19.014;2024-01-06T06:11:40;75.13;;;38.13;;
18659;SDS011;9459;50.254;19.014;2024-01-06T06:14:09;65.40;;;37.33;;
18659;SDS011;9459;50.254;19.014;2024-01-06T06:16:37;65.32;;;35.20;;
18659;SDS011;9459;50.254;19.014;2024-01-06T06:19:06;64.70;;;35.72;;
18659;SDS011;9459;50.254;19.014;2024-01-06T06:21:34;68.05;;;36.60;;
18659;SDS011;9459;50.254;19.014;2024-01-06T06:24:03;67.70;;;36.88;;
18659;SDS011;9459;50.254;19.014;2024-01-06T06:26:34;66.13;;;34.35;;
18659;SDS011;9459;50.254;19.014;2024-01-06T06:29:06;64.78;;;35.47;;
18659;SDS011;9459;50.254;19.014;2024-01-06T06:31:35;71.07;;;37.63;;
18659;SDS011;9459;50.254;19.014;2024-01-06T06:34:03;74.22;;;39.03;;
18659;SDS011;9459;50.254;19.014;2024-01-06T06:36:35;70.18;;;36.40;;
18659;SDS011;9459;50.254;19.014;2024-01-06T06:39:03;70.78;;;38.35;;
18659;SDS011;9459;50.254;19.014;2024-01-06T06:41:33;79.10;;;42.65;;
18659;SDS011;9459;50.254;19.014;2024-01-06T06:44:01;80.22;;;42.75;;
18659;SDS011;9459;50.254;19.014;2024-01-06T06:46:31;77.55;;;42.00;;
18659;SDS011;9459;50.254;19.014;2024-01-06T06:48:59;79.60;;;42.40;;
18659;SDS011;9459;50.254;19.014;2024-01-06T06:51:28;79.72;;;41.97;;
18659;SDS011;9459;50.254;19.014;2024-01-06T06:53:57;77.70;;;41.35;;
18659;SDS011;9459;50.254;19.014;2024-01-06T06:56:26;72.07;;;40.55;;
18659;SDS011;9459;50.254;19.014;2024-01-06T06:58:56;73.75;;;40.33;;
18659;SDS011;9459;50.254;19.014;2024-01-06T07:01:24;69.88;;;39.75;;
18659;SDS011;9459;50.254;19.014;2024-01-06T07:03:53;63.75;;;35.45;;
18659;SDS011;9459;50.254;19.014;2024-01-06T07:06:22;64.60;;;35.70;;
18659;SDS011;9459;50.254;19.014;2024-01-06T07:08:51;62.20;;;34.17;;
18659;SDS011;9459;50.254;19.014;2024-01-06T07:11:21;64.50;;;34.38;;
18659;SDS011;9459;50.254;19.014;2024-01-06T07:13:49;66.05;;;36.25;;
18659;SDS011;9459;50.254;19.014;2024-01-06T07:16:19;66.50;;;34.97;;
18659;SDS011;9459;50.254;19.014;2024-01-06T07:18:48;85.40;;;53.72;;
18659;SDS011;9459;50.254;19.014;2024-01-06T07:21:16;113.03;;;72.38;;
18659;SDS011;9459;50.254;19.014;2024-01-06T07:23:45;69.20;;;38.50;;
18659;SDS011;9459;50.254;19.014;2024-01-06T07:26:13;60.60;;;35.20;;
18659;SDS011;9459;50.254;19.014;2024-01-06T07:28:42;57.80;;;33.33;;
18659;SDS011;9459;50.254;19.014;2024-01-06T07:31:10;61.35;;;33.20;;
18659;SDS011;9459;50.254;19.014;2024-01-06T07:33:40;56.38;;;34.28;;
18659;SDS011;9459;50.254;19.014;2024-01-06T07:36:09;58.28;;;33.08;;
18659;SDS011;9459;50.254;19.014;2024-01-06T07:38:38;63.28;;;35.67;;
18659;SDS011;9459;50.254;19.014;2024-01-06T07:41:06;63.22;;;35.42;;
18659;SDS011;9459;50.254;19.014;2024-01-06T07:43:35;58.00;;;32.00;;
18659;SDS011;9459;50.254;19.014;2024-01-06T07:46:04;59.75;;;33.45;;
18659;SDS011;9459;50.254;19.014;2024-01-06T07:48:34;60.65;;;33.30;;
18659;SDS011;9459;50.254;19.014;2024-01-06T07:51:04;60.75;;;33.08;;
18659;SDS011;9459;50.254;19.014;2024-01-06T07:53:33;61.22;;;34.90;;
18659;SDS011;9459;50.254;19.014;2024-01-06T07:56:01;56.75;;;31.58;;
18659;SDS011;9459;50.254;19.014;2024-01-06T07:58:30;58.92;;;35.10;;
18659;SDS011;9459;50.254;19.014;2024-01-06T08:00:59;67.90;;;37.47;;
18659;SDS011;9459;50.254;19.014;2024-01-06T08:03:28;56.78;;;32.40;;
18659;SDS011;9459;50.254;19.014;2024-01-06T08:05:57;58.45;;;32.42;;
18659;SDS011;9459;50.254;19.014;2024-01-06T08:08:28;54.42;;;32.25;;
18659;SDS011;9459;50.254;19.014;2024-01-06T08:10:56;61.88;;;32.70;;
18659;SDS011;9459;50.254;19.014;2024-01-06T08:13:25;55.88;;;31.52;;
18659;SDS011;9459;50.254;19.014;2024-01-06T08:15:55;60.53;;;33.80;;
18659;SDS011;9459;50.254;19.014;2024-01-06T08:18:23;59.08;;;32.15;;
18659;SDS011;9459;50.254;19.014;2024-01-06T08:20:52;59.70;;;34.08;;
18659;SDS011;9459;50.254;19.014;2024-01-06T08:23:22;55.83;;;33.25;;
18659;SDS011;9459;50.254;19.014;2024-01-06T08:25:52;56.92;;;33.40;;
18659;SDS011;9459;50.254;19.014;2024-01-06T08:28:20;56.25;;;32.40;;
18659;SDS011;9459;50.254;19.014;2024-01-06T08:30:50;56.03;;;32.05;;
18659;SDS011;9459;50.254;19.014;2024-01-06T08:33:19;65.25;;;33.90;;
18659;SDS011;9459;50.254;19.014;2024-01-06T08:35:48;59.72;;;33.05;;
18659;SDS011;9459;50.254;19.014;2024-01-06T08:38:16;62.08;;;34.28;;
18659;SDS011;9459;50.254;19.014;2024-01-06T08:40:45;56.88;;;32.95;;
18659;SDS011;9459;50.254;19.014;2024-01-06T08:43:16;58.83;;;33.60;;
18659;SDS011;9459;50.254;19.014;2024-01-06T08:45:45;56.03;;;32.22;;
18659;SDS011;9459;50.254;19.014;2024-01-06T08:48:14;55.78;;;31.00;;
18659;SDS011;9459;50.254;19.014;2024-01-06T08:50:45;58.67;;;33.10;;
18659;SDS011;9459;50.254;19.014;2024-01-06T08:53:13;55.88;;;31.75;;
18659;SDS011;9459;50.254;19.014;2024-01-06T08:55:42;59.47;;;33.38;;
18659;SDS011;9459;50.254;19.014;2024-01-06T08:58:13;57.97;;;32.73;;
18659;SDS011;9459;50.254;19.014;2024-01-06T09:00:43;58.72;;;33.10;;
18659;SDS011;9459;50.254;19.014;2024-01-06T09:03:11;61.85;;;34.13;;
18659;SDS011;9459;50.254;19.014;2024-01-06T09:05:40;65.45;;;34.03;;
18659;SDS011;9459;50.254;19.014;2024-01-06T09:08:09;61.60;;;33.53;;
18659;SDS011;9459;50.254;19.014;2024-01-06T09:10:38;58.65;;;33.50;;
18659;SDS011;9459;50.254;19.014;2024-01-06T09:13:06;56.80;;;33.40;;
18659;SDS011;9459;50.254;19.014;2024-01-06T09:15:35;73.65;;;39.22;;
18659;SDS011;9459;50.254;19.014;2024-01-06T09:18:05;62.67;;;37.40;;
18659;SDS011;9459;50.254;19.014;2024-01-06T09:20:35;68.40;;;39.33;;
18659;SDS011;9459;50.254;19.014;2024-01-06T09:23:05;68.45;;;38.08;;
18659;SDS011;9459;50.254;19.014;2024-01-06T09:25:35;66.47;;;37.08;;
18659;SDS011;9459;50.254;19.014;2024-01-06T09:28:03;65.72;;;35.53;;
18659;SDS011;9459;50.254;19.014;2024-01-06T09:30:33;59.60;;;35.10;;
18659;SDS011;9459;50.254;19.014;2024-01-06T09:33:02;74.75;;;42.45;;
18659;SDS011;9459;50.254;19.014;2024-01-06T09:35:32;70.22;;;42.03;;
18659;SDS011;9459;50.254;19.014;2024-01-06T09:38:00;67.88;;;39.78;;
18659;SDS011;9459;50.254;19.014;2024-01-06T09:40:30;69.82;;;42.13;;
18659;SDS011;9459;50.254;19.014;2024-01-06T09:42:59;72.53;;;42.30;;
18659;SDS011;9459;50.254;19.014;2024-01-06T09:45:29;69.78;;;40.67;;
18659;SDS011;9459;50.254;19.014;2024-01-06T09:47:58;67.95;;;38.92;;
18659;SDS011;9459;50.254;19.014;2024-01-06T09:50:28;68.80;;;39.50;;
18659;SDS011;9459;50.254;19.014;2024-01-06T09:52:58;68.75;;;40.03;;
18659;SDS011;9459;50.254;19.014;2024-01-06T09:55:32;64.30;;;38.13;;
18659;SDS011;9459;50.254;19.014;2024-01-06T09:58:03;68.10;;;39.42;;
18659;SDS011;9459;50.254;19.014;2024-01-06T10:00:34;60.00;;;37.88;;
18659;SDS011;9459;50.254;19.014;2024-01-06T10:03:04;71.88;;;41.95;;
18659;SDS011;9459;50.254;19.014;2024-01-06T10:05:37;63.70;;;39.05;;
18659;SDS011;9459;50.254;19.014;2024-01-06T10:08:08;62.20;;;37.30;;
18659;SDS011;9459;50.254;19.014;2024-01-06T10:10:39;67.57;;;40.42;;
18659;SDS011;9459;50.254;19.014;2024-01-06T10:13:09;71.53;;;44.58;;
18659;SDS011;9459;50.254;19.014;2024-01-06T10:18:09;72.65;;;44.95;;
18659;SDS011;9459;50.254;19.014;2024-01-06T10:20:39;74.78;;;45.63;;
18659;SDS011;9459;50.254;19.014;2024-01-06T10:23:09;68.35;;;41.88;;
18659;SDS011;9459;50.254;19.014;2024-01-06T10:25:38;80.70;;;49.80;;
18659;SDS011;9459;50.254;19.014;2024-01-06T10:30:39;80.88;;;48.45;;
18659;SDS011;9459;50.254;19.014;2024-01-06T10:33:08;89.18;;;54.70;;
18659;SDS011;9459;50.254;19.014;2024-01-06T10:35:37;86.88;;;52.28;;
18659;SDS011;9459;50.254;19.014;2024-01-06T10:38:18;88.93;;;52.85;;
18659;SDS011;9459;50.254;19.014;2024-01-06T10:40:56;84.22;;;49.75;;
18659;SDS011;9459;50.254;19.014;2024-01-06T10:43:26;91.20;;;54.72;;
18659;SDS011;9459;50.254;19.014;2024-01-06T10:45:56;84.28;;;50.85;;
18659;SDS011;9459;50.254;19.014;2024-01-06T10:48:26;78.95;;;49.28;;
18659;SDS011;9459;50.254;19.014;2024-01-06T10:50:55;82.78;;;51.10;;
18659;SDS011;9459;50.254;19.014;2024-01-06T10:53:24;88.60;;;49.70;;
18659;SDS011;9459;50.254;19.014;2024-01-06T10:55:55;86.15;;;51.88;;
18659;SDS011;9459;50.254;19.014;2024-01-06T10:58:23;90.03;;;52.65;;
18659;SDS011;9459;50.254;19.014;2024-01-06T11:00:56;92.18;;;53.75;;
18659;SDS011;9459;50.254;19.014;2024-01-06T11:03:25;87.53;;;50.97;;
18659;SDS011;9459;50.254;19.014;2024-01-06T11:05:55;96.32;;;53.35;;
18659;SDS011;9459;50.254;19.014;2024-01-06T11:08:26;91.80;;;51.88;;
18659;SDS011;9459;50.254;19.014;2024-01-06T11:10:57;93.35;;;53.47;;
18659;SDS011;9459;50.254;19.014;2024-01-06T11:13:25;95.20;;;53.50;;
18659;SDS011;9459;50.254;19.014;2024-01-06T11:15:54;98.97;;;58.72;;
18659;SDS011;9459;50.254;19.014;2024-01-06T11:18:32;91.90;;;54.70;;
18659;SDS011;9459;50.254;19.014;2024-01-06T11:26:49;95.05;;;55.65;;
18659;SDS011;9459;50.254;19.014;2024-01-06T11:29:19;91.82;;;54.38;;
18659;SDS011;9459;50.254;19.014;2024-01-06T11:34:47;101.88;;;60.67;;
18659;SDS011;9459;50.254;19.014;2024-01-06T11:37:18;96.43;;;57.58;;
18659;SDS011;9459;50.254;19.014;2024-01-06T11:39:48;85.80;;;52.72;;
18659;SDS011;9459;50.254;19.014;2024-01-06T11:42:21;90.22;;;53.80;;
18659;SDS011;9459;50.254;19.014;2024-01-06T11:44:50;88.65;;;51.53;;
18659;SDS011;9459;50.254;19.014;2024-01-06T11:47:19;83.78;;;51.95;;
18659;SDS011;9459;50.254;19.014;2024-01-06T11:49:53;92.75;;;52.33;;
18659;SDS011;9459;50.254;19.014;2024-01-06T11:52:23;82.70;;;49.60;;
18659;SDS011;9459;50.254;19.014;2024-01-06T11:54:52;81.75;;;50.03;;
18659;SDS011;9459;50.254;19.014;2024-01-06T11:57:24;75.65;;;48.28;;
18659;SDS011;9459;50.254;19.014;2024-01-06T11:59:55;72.93;;;43.92;;
18659;SDS011;9459;50.254;19.014;2024-01-06T12:02:26;68.15;;;41.05;;
18659;SDS011;9459;50.254;19.014;2024-01-06T12:04:56;71.20;;;42.17;;
18659;SDS011;9459;50.254;19.014;2024-01-06T12:07:25;65.53;;;38.95;;
18659;SDS011;9459;50.254;19.014;2024-01-06T12:10:00;67.15;;;40.72;;
18659;SDS011;9459;50.254;19.014;2024-01-06T12:12:31;74.38;;;45.30;;
18659;SDS011;9459;50.254;19.014;2024-01-06T12:15:00;68.15;;;40.63;;
18659;SDS011;9459;50.254;19.014;2024-01-06T12:17:30;70.25;;;41.20;;
18659;SDS011;9459;50.254;19.014;2024-01-06T12:20:00;71.10;;;42.05;;
18659;SDS011;9459;50.254;19.014;2024-01-06T12:22:35;72.63;;;43.38;;
18659;SDS011;9459;50.254;19.014;2024-01-06T12:25:05;68.90;;;42.15;;
18659;SDS011;9459;50.254;19.014;2024-01-06T12:27:36;64.32;;;39.97;;
18659;SDS011;9459;50.254;19.014;2024-01-06T12:30:13;64.07;;;40.35;;
18659;SDS011;9459;50.254;19.014;2024-01-06T12:32:46;66.57;;;39.65;;
18659;SDS011;9459;50.254;19.014;2024-01-06T12:35:16;65.90;;;41.95;;
18659;SDS011;9459;50.254;19.014;2024-01-06T12:37:45;68.70;;;42.33;;
18659;SDS011;9459;50.254;19.014;2024-01-06T12:40:14;63.10;;;39.20;;
18659;SDS011;9459;50.254;19.014;2024-01-06T12:42:46;64.60;;;42.38;;
18659;SDS011;9459;50.254;19.014;2024-01-06T12:45:14;64.20;;;40.15;;
18659;SDS011;9459;50.254;19.014;2024-01-06T12:47:44;65.72;;;40.97;;
18659;SDS011;9459;50.254;19.014;2024-01-06T12:50:13;64.10;;;38.92;;
18659;SDS011;9459;50.254;19.014;2024-01-06T12:52:41;57.75;;;38.53;;
18659;SDS011;9459;50.254;19.014;2024-01-06T12:55:10;62.38;;;39.13;;
18659;SDS011;9459;50.254;19.014;2024-01-06T12:57:38;55.13;;;37.45;;
18659;SDS011;9459;50.254;19.014;2024-01-06T13:00:09;60.47;;;37.25;;
18659;SDS011;9459;50.254;19.014;2024-01-06T13:05:08;50.58;;;33.05;;
18659;SDS011;9459;50.254;19.014;2024-01-06T13:07:38;58.88;;;37.92;;
18659;SDS011;9459;50.254;19.014;2024-01-06T13:10:08;61.17;;;37.40;;
18659;SDS011;9459;50.254;19.014;2024-01-06T13:12:37;59.70;;;37.72;;
18659;SDS011;9459;50.254;19.014;2024-01-06T13:15:07;56.67;;;36.70;;
18659;SDS011;9459;50.254;19.014;2024-01-06T13:17:38;59.40;;;38.42;;
18659;SDS011;9459;50.254;19.014;2024-01-06T13:20:08;62.22;;;37.58;;
18659;SDS011;9459;50.254;19.014;2024-01-06T13:22:37;57.55;;;37.80;;
18659;SDS011;9459;50.254;19.014;2024-01-06T13:25:07;55.72;;;37.63;;
18659;SDS011;9459;50.254;19.014;2024-01-06T13:27:37;55.33;;;34.15;;
18659;SDS011;9459;50.254;19.014;2024-01-06T13:30:06;49.78;;;33.28;;
18659;SDS011;9459;50.254;19.014;2024-01-06T13:32:36;49.47;;;31.80;;
18659;SDS011;9459;50.254;19.014;2024-01-06T13:35:05;49.13;;;30.80;;
18659;SDS011;9459;50.254;19.014;2024-01-06T13:37:37;51.13;;;33.33;;
18659;SDS011;9459;50.254;19.014;2024-01-06T13:40:07;56.45;;;35.08;;
18659;SDS011;9459;50.254;19.014;2024-01-06T13:42:37;73.38;;;44.38;;
18659;SDS011;9459;50.254;19.014;2024-01-06T13:45:06;62.28;;;37.63;;
18659;SDS011;9459;50.254;19.014;2024-01-06T13:47:36;69.50;;;40.15;;
18659;SDS011;9459;50.254;19.014;2024-01-06T13:50:05;52.28;;;31.08;;
18659;SDS011;9459;50.254;19.014;2024-01-06T13:52:36;55.58;;;34.28;;
18659;SDS011;9459;50.254;19.014;2024-01-06T13:57:35;57.50;;;33.22;;
18659;SDS011;9459;50.254;19.014;2024-01-06T14:00:09;54.08;;;30.35;;
18659;SDS011;9459;50.254;19.014;2024-01-06T14:02:44;54.95;;;31.45;;
18659;SDS011;9459;50.254;19.014;2024-01-06T14:07:43;55.28;;;29.23;;
18659;SDS011;9459;50.254;19.014;2024-01-06T14:10:14;55.47;;;31.70;;
18659;SDS011;9459;50.254;19.014;2024-01-06T14:12:44;49.05;;;28.55;;
18659;SDS011;9459;50.254;19.014;2024-01-06T14:15:13;64.40;;;34.10;;
18659;SDS011;9459;50.254;19.014;2024-01-06T14:17:43;56.80;;;30.52;;
18659;SDS011;9459;50.254;19.014;2024-01-06T14:20:17;50.00;;;28.05;;
18659;SDS011;9459;50.254;19.014;2024-01-06T14:22:45;69.10;;;36.33;;
18659;SDS011;9459;50.254;19.014;2024-01-06T14:25:16;49.50;;;29.65;;
18659;SDS011;9459;50.254;19.014;2024-01-06T14:27:45;72.75;;;38.03;;
18659;SDS011;9459;50.254;19.014;2024-01-06T14:30:15;234.07;;;106.32;;
18659;SDS011;9459;50.254;19.014;2024-01-06T14:32:45;405.45;;;189.00;;
18659;SDS011;9459;50.254;19.014;2024-01-06T14:35:13;267.65;;;157.43;;
18659;SDS011;9459;50.254;19.014;2024-01-06T14:37:43;47.17;;;35.03;;
18659;SDS011;9459;50.254;19.014;2024-01-06T14:40:12;48.33;;;32.45;;
18659;SDS011;9459;50.254;19.014;2024-01-06T14:42:42;43.17;;;28.73;;
18659;SDS011;9459;50.254;19.014;2024-01-06T14:45:11;46.20;;;30.48;;
18659;SDS011;9459;50.254;19.014;2024-01-06T14:47:41;38.75;;;24.23;;
18659;SDS011;9459;50.254;19.014;2024-01-06T14:50:12;42.35;;;25.92;;
18659;SDS011;9459;50.254;19.014;2024-01-06T14:52:41;40.30;;;25.53;;
18659;SDS011;9459;50.254;19.014;2024-01-06T14:55:09;44.97;;;30.98;;